• Join FlightAware (Why Join?)
  • Login
  • US Flag 
 
02:33PM EST


 

Airport Tracker/Info


-or-


 

Live Flight TrackerFlight Track Log ✈ SQH23 ✈ 28-May-2012 ✈ KPDX - KOTH

Flight Track Log - Related Links

Times and Time Zones

All times are in EDT time to prevent confusion due to time zone crossing. See the SQH23 flight status page for this flight to view local times or setup timezone preferences in your user account.

Time Position Orientation Groundspeed Altitude Reporting Facility
EDT Latitude Longitude Course Direction KTS MPH feet Rate Location/Type
01:00PM 45.5897 -122.5833 299° West 83 96 400  Level Seattle Center
01:01PM 45.5958 -122.5992 240° Southwest 90 104 900 900 Climbing Seattle Center
01:02PM 45.5847 -122.6264 224° Southwest 94 108 1,700 780 Climbing Seattle Center
01:03PM 45.5600 -122.6606 225° Southwest 120 138 2,400 840 Climbing Seattle Center
01:04PM 45.5369 -122.6936 226° Southwest 122 140 3,500 780 Climbing Seattle Center
01:05PM 45.5108 -122.7317 225° Southwest 123 142 4,000 600 Climbing Seattle Center
01:06PM 45.4847 -122.7694 205° Southwest 131 151 4,800 480 Climbing Seattle Center
01:07PM 45.4506 -122.7922 204° Southwest 137 158 5,000 540 Climbing Seattle Center
01:08PM 45.4156 -122.8142 210° Southwest 127 146 6,100 900 Climbing Seattle Center
01:09PM 45.3942 -122.8319 205° Southwest 108 124 6,900 840 Climbing Seattle Center
01:10PM 45.3636 -122.8519 204° Southwest 105 121 7,900 840 Climbing Seattle Center
01:11PM 45.3372 -122.8683 208° Southwest 105 121 8,800 540 Climbing Seattle Center
01:12PM 45.3092 -122.8892 206° Southwest 111 128 9,100 120 Climbing Seattle Center
01:13PM 45.2733 -122.9139 205° Southwest 138 159 9,100  Level Seattle Center
01:14PM 45.2361 -122.9389 206° Southwest 148 170 9,100  Level Seattle Center
01:15PM 45.1994 -122.9647 207° Southwest 147 169 9,100  Level Seattle Center
01:16PM 45.1622 -122.9919 206° Southwest 149 171 9,100  Level Seattle Center
01:17PM 45.1258 -123.0175 205° Southwest 148 170 9,100  Level Seattle Center
01:18PM 45.0883 -123.0428 206° Southwest 148 170 9,100  Level Seattle Center
01:19PM 45.0436 -123.0733 206° Southwest 148 170 9,100  Level Seattle Center
01:20PM 45.0069 -123.0989 206° Southwest 148 170 9,100  Level Seattle Center
01:21PM 44.9700 -123.1247 205° Southwest 148 170 9,100  Level Seattle Center
01:22PM 44.9331 -123.1492 206° Southwest 147 169 9,100  Level Seattle Center
01:23PM 44.8958 -123.1750 206° Southwest 148 170 9,100  Level Seattle Center
01:24PM 44.8589 -123.2008 204° Southwest 147 169 9,100  Level Seattle Center
01:25PM 44.8211 -123.2250 206° Southwest 148 170 9,100  Level Seattle Center
01:26PM 44.7836 -123.2508 206° Southwest 149 171 9,100  Level Seattle Center
01:27PM 44.7461 -123.2761 207° Southwest 149 171 9,100  Level Seattle Center
01:28PM 44.7089 -123.3025 206° Southwest 149 171 9,100  Level Seattle Center
01:29PM 44.6722 -123.3278 206° Southwest 148 170 9,100  Level Seattle Center
01:30PM 44.6353 -123.3528 206° Southwest 147 169 9,100  Level Seattle Center
01:31PM 44.5992 -123.3778 206° Southwest 146 168 9,100  Level Seattle Center
01:32PM 44.5622 -123.4031 205° Southwest 147 169 9,100  Level Seattle Center
01:33PM 44.5247 -123.4278 206° Southwest 148 170 9,100  Level Seattle Center
01:34PM 44.4794 -123.4586 206° Southwest 150 173 9,100  Level Seattle Center
01:35PM 44.4425 -123.4842 205° Southwest 149 171 9,100  Level Seattle Center
01:36PM 44.4050 -123.5092 206° Southwest 149 171 9,100  Level Seattle Center
01:37PM 44.3678 -123.5350 206° Southwest 149 171 9,100  Level Seattle Center
01:38PM 44.3300 -123.5611 205° Southwest 151 174 9,100  Level Seattle Center
01:39PM 44.2922 -123.5861 206° Southwest 151 174 9,100  Level Seattle Center
01:40PM 44.2539 -123.6128 205° Southwest 153 176 9,100  Level Seattle Center
01:41PM 44.2161 -123.6372 206° Southwest 151 174 9,100  Level Seattle Center
01:42PM 44.1775 -123.6639 205° Southwest 153 176 9,100  Level Seattle Center
01:43PM 44.1397 -123.6889 206° Southwest 152 175 9,100  Level Seattle Center
01:44PM 44.1017 -123.7142 205° Southwest 152 175 9,100  Level Seattle Center
01:45PM 44.0556 -123.7442 206° Southwest 152 175 9,100 -60 Level Seattle Center
01:46PM 44.0178 -123.7697 205° Southwest 151 174 9,000 -60 Descending Seattle Center
01:47PM 43.9786 -123.7953 206° Southwest 154 177 9,000  Level Seattle Center
01:48PM 43.9408 -123.8208 205° Southwest 152 175 9,000  Level Seattle Center
01:49PM 43.9025 -123.8461 205° Southwest 152 175 9,000  Level Seattle Center
01:50PM 43.8636 -123.8708 207° Southwest 154 177 9,000  Level Seattle Center
01:52PM 43.8256 -123.8972 207° Southwest 153 176 9,000  Level Seattle Center
01:53PM 43.7892 -123.9228 204° Southwest 149 171 9,000  Level Seattle Center
01:54PM 43.7542 -123.9444 205° Southwest 138 159 9,000  Level Seattle Center
01:55PM 43.7208 -123.9664 219° Southwest 133 153 9,000  Level Seattle Center
01:56PM 43.6919 -123.9992 217° Southwest 132 152 9,000  Level Seattle Center
01:57PM 43.6614 -124.0314 217° Southwest 137 158 9,000  Level Seattle Center
01:58PM 43.6311 -124.0631 217° Southwest 137 158 9,000  Level Seattle Center
01:59PM 43.5967 -124.0986 217° Southwest 135 155 9,000  Level Seattle Center
02:00PM 43.5664 -124.1306 217° Southwest 136 157 9,000  Level Seattle Center
02:01PM 43.5369 -124.1608 217° Southwest 134 154 9,000  Level Seattle Center
02:02PM 43.5064 -124.1922 216° Southwest 135 155 9,000 -360 Level Seattle Center
02:03PM 43.4742 -124.2250 217° Southwest 141 162 8,300 -660 Descending Seattle Center
02:04PM 43.4400 -124.2600 218° Southwest 149 171 7,700 -660 Descending Seattle Center
02:05PM 43.4097 -124.2928 235° Southwest 144 166 7,000 -720 Descending Seattle Center
02:06PM 43.3903 -124.3314 268° West 141 162 6,300 -660 Descending Seattle Center
02:07PM 43.3889 -124.3847 132° Southeast 147 169 5,700 -660 Descending Seattle Center
02:08PM 43.3736 -124.3614 62° Northeast 140 161 5,000 -600 Descending Seattle Center
02:09PM 43.3922 -124.3139 345° North 140 161 4,600 -540 Descending Seattle Center
02:10PM 43.4167 -124.3231 197° South 145 167 4,000 -480 Descending Seattle Center
02:11PM 43.3844 -124.3369 64° Northeast 150 173 3,700 -300 Descending Seattle Center
02:18PM 43.5100 -123.9879 64° Northeast  Level Estimated